createdAt,value
2023-05-21T00:02:21.387Z,49.85
2023-05-21T00:04:49.001Z,49.94
2023-05-21T00:07:16.624Z,50.45
2023-05-21T00:09:44.217Z,50.38
2023-05-21T00:12:11.781Z,50.14
2023-05-21T00:14:39.385Z,50.38
2023-05-21T00:17:06.967Z,50.31
2023-05-21T00:19:34.544Z,50.48
2023-05-21T00:22:03.670Z,50.67
2023-05-21T00:24:31.271Z,50.77
2023-05-21T00:26:59.655Z,51.07
2023-05-21T00:29:27.793Z,51.05
2023-05-21T00:31:56.013Z,51.06
2023-05-21T00:34:23.728Z,51.27
2023-05-21T00:36:53.354Z,51.12
2023-05-21T00:39:21.172Z,51.56
2023-05-21T00:41:48.816Z,51.39
2023-05-21T00:44:18.325Z,51.60
2023-05-21T00:46:48.766Z,51.34
2023-05-21T00:49:17.050Z,51.70
2023-05-21T00:51:45.248Z,51.72
2023-05-21T00:54:13.094Z,51.81
2023-05-21T00:56:41.380Z,51.77
2023-05-21T00:59:09.170Z,51.99
2023-05-21T01:01:37.227Z,52.07
2023-05-21T01:04:05.119Z,52.44
2023-05-21T01:06:35.764Z,52.30
2023-05-21T01:09:05.450Z,52.29
2023-05-21T01:11:44.717Z,52.23
2023-05-21T01:14:13.514Z,52.41
2023-05-21T01:16:46.334Z,52.51
2023-05-21T01:19:20.803Z,52.51
2023-05-21T01:21:56.742Z,52.86
2023-05-21T01:24:24.450Z,52.66
2023-05-21T01:26:52.919Z,52.80
2023-05-21T01:29:20.772Z,52.97
2023-05-21T01:31:56.656Z,52.92
2023-05-21T01:35:12.895Z,52.61
2023-05-21T01:37:55.241Z,52.78
2023-05-21T01:40:35.398Z,53.07
2023-05-21T01:43:05.713Z,53.36
2023-05-21T01:45:39.320Z,53.31
2023-05-21T01:48:09.346Z,53.24
2023-05-21T01:50:39.166Z,53.42
2023-05-21T01:53:07.036Z,53.36
2023-05-21T01:55:35.712Z,53.44
2023-05-21T01:58:03.534Z,53.55
2023-05-21T02:00:32.615Z,53.59
2023-05-21T02:03:00.453Z,53.67
2023-05-21T02:05:28.270Z,53.67
2023-05-21T02:07:57.021Z,53.79
2023-05-21T02:10:24.568Z,54.02
2023-05-21T02:12:52.524Z,54.07
2023-05-21T02:15:20.235Z,54.24
2023-05-21T02:17:48.122Z,54.22
2023-05-21T02:20:16.187Z,54.35
2023-05-21T02:22:47.350Z,54.53
2023-05-21T02:25:18.233Z,54.71
2023-05-21T02:27:46.934Z,54.83
2023-05-21T02:30:16.110Z,55.04
2023-05-21T02:32:44.776Z,55.00
2023-05-21T02:35:13.480Z,54.99
2023-05-21T02:37:41.387Z,55.09
2023-05-21T02:40:10.173Z,54.98
2023-05-21T02:42:40.110Z,54.98
2023-05-21T02:45:13.447Z,54.74
2023-05-21T02:47:43.502Z,54.77
2023-05-21T02:50:11.387Z,54.88
2023-05-21T02:52:46.782Z,54.84
2023-05-21T02:55:14.494Z,54.89
2023-05-21T02:57:42.046Z,54.84
2023-05-21T03:00:11.479Z,54.99
2023-05-21T03:02:40.796Z,55.07
2023-05-21T03:05:09.699Z,54.96
2023-05-21T03:07:37.266Z,54.99
2023-05-21T03:10:06.489Z,54.96
2023-05-21T03:12:34.057Z,55.00
2023-05-21T03:15:01.659Z,55.07
2023-05-21T03:17:47.539Z,55.01
2023-05-21T03:20:18.561Z,54.88
2023-05-21T03:22:46.578Z,55.01
2023-05-21T03:25:14.639Z,54.94
2023-05-21T03:27:42.299Z,55.16
2023-05-21T03:30:25.731Z,55.12
2023-05-21T03:33:13.977Z,55.23
2023-05-21T03:35:43.605Z,55.12
2023-05-21T03:38:11.424Z,55.28
2023-05-21T03:40:38.974Z,55.39
2023-05-21T03:43:06.868Z,55.28
2023-05-21T03:45:35.018Z,55.19
2023-05-21T03:48:26.121Z,55.13
2023-05-21T03:50:53.954Z,55.44
2023-05-21T03:53:21.585Z,55.49
2023-05-21T03:55:55.270Z,55.64
2023-05-21T03:58:24.858Z,55.31
2023-05-21T04:00:52.574Z,55.64
2023-05-21T04:03:20.250Z,55.73
2023-05-21T04:05:48.652Z,55.91
2023-05-21T04:08:16.331Z,55.80
2023-05-21T04:10:43.966Z,55.71
2023-05-21T04:13:11.515Z,56.00
2023-05-21T04:15:39.198Z,55.98
2023-05-21T04:18:07.345Z,55.85
2023-05-21T04:20:35.029Z,55.99
2023-05-21T04:23:03.425Z,55.88
2023-05-21T04:25:30.995Z,56.11
2023-05-21T04:27:58.622Z,55.86
2023-05-21T04:30:26.210Z,55.99
2023-05-21T04:32:54.810Z,56.07
2023-05-21T04:35:23.368Z,56.12
2023-05-21T04:37:52.061Z,55.97
2023-05-21T04:40:24.229Z,56.15
2023-05-21T04:42:51.869Z,56.14
2023-05-21T04:45:24.526Z,56.25
2023-05-21T04:47:53.315Z,56.10
2023-05-21T04:50:20.921Z,55.93
2023-05-21T04:52:49.413Z,55.88
2023-05-21T04:55:19.062Z,55.82
2023-05-21T04:57:46.633Z,55.80
2023-05-21T05:00:14.718Z,55.73
2023-05-21T05:02:44.065Z,55.81
2023-05-21T05:05:11.903Z,55.76
2023-05-21T05:07:39.499Z,55.74
2023-05-21T05:10:08.088Z,55.86
2023-05-21T05:12:35.621Z,55.84
2023-05-21T05:15:03.236Z,55.81
2023-05-21T05:17:31.912Z,55.81
2023-05-21T05:19:59.687Z,55.86
2023-05-21T05:22:27.746Z,55.95
2023-05-21T05:24:55.342Z,55.89
2023-05-21T05:27:22.945Z,55.81
2023-05-21T05:29:50.783Z,55.98
2023-05-21T05:32:18.342Z,55.94
2023-05-21T05:34:46.712Z,55.89
2023-05-21T05:37:14.389Z,55.89
2023-05-21T05:39:41.985Z,55.87
2023-05-21T05:42:09.685Z,55.96
2023-05-21T05:44:37.311Z,56.26
2023-05-21T05:47:09.099Z,56.03
2023-05-21T05:49:37.219Z,56.03
2023-05-21T05:52:05.702Z,55.88
2023-05-21T05:54:34.015Z,56.00
2023-05-21T05:57:01.676Z,56.02
2023-05-21T05:59:29.368Z,56.04
2023-05-21T06:02:01.404Z,55.92
2023-05-21T06:04:30.300Z,55.85
2023-05-21T06:06:59.687Z,55.96
2023-05-21T06:09:27.371Z,55.91
2023-05-21T06:11:55.735Z,55.99
2023-05-21T06:14:23.469Z,56.02
2023-05-21T06:16:51.129Z,55.98
2023-05-21T06:19:19.306Z,55.83
2023-05-21T06:21:47.167Z,55.81
2023-05-21T06:24:15.397Z,55.70
2023-05-21T06:26:42.971Z,55.68
2023-05-21T06:29:12.598Z,55.68
2023-05-21T06:31:41.885Z,55.70
2023-05-21T06:34:10.602Z,55.55
2023-05-21T06:36:38.329Z,55.65
2023-05-21T06:39:05.980Z,55.60
2023-05-21T06:41:33.659Z,55.59
2023-05-21T06:44:05.880Z,55.25
2023-05-21T06:47:11.599Z,55.32
2023-05-21T06:49:39.177Z,55.12
2023-05-21T06:52:07.071Z,55.18
2023-05-21T06:54:35.112Z,55.12
2023-05-21T06:57:02.838Z,55.00
2023-05-21T06:59:31.997Z,54.95
2023-05-21T07:02:00.921Z,54.60
2023-05-21T07:04:29.497Z,54.13
2023-05-21T07:06:57.122Z,54.17
2023-05-21T07:09:25.309Z,54.17
2023-05-21T07:11:53.291Z,53.79
2023-05-21T07:14:21.824Z,53.74
2023-05-21T07:16:49.401Z,53.72
2023-05-21T07:19:17.004Z,53.76
2023-05-21T07:21:46.257Z,54.37
2023-05-21T07:24:13.825Z,53.98
2023-05-21T07:26:42.119Z,54.08
2023-05-21T07:29:11.523Z,53.80
2023-05-21T07:31:39.316Z,53.77
2023-05-21T07:34:07.673Z,53.46
2023-05-21T07:36:35.318Z,52.87
2023-05-21T07:39:03.849Z,52.47
2023-05-21T07:41:32.664Z,52.12
2023-05-21T07:44:02.889Z,52.05
2023-05-21T07:46:32.742Z,52.36
2023-05-21T07:49:00.422Z,51.81
2023-05-21T07:51:28.799Z,52.25
2023-05-21T07:53:56.488Z,51.83
2023-05-21T07:56:32.364Z,51.74
2023-05-21T07:59:00.178Z,50.95
2023-05-21T08:01:31.404Z,51.32
2023-05-21T08:04:05.924Z,51.23
2023-05-21T08:06:37.438Z,50.93
2023-05-21T08:09:06.241Z,50.88
2023-05-21T08:11:33.878Z,50.39
2023-05-21T08:14:01.428Z,50.21
2023-05-21T08:16:29.036Z,50.23
2023-05-21T08:18:56.652Z,50.67
2023-05-21T08:21:24.332Z,50.14
2023-05-21T08:23:55.148Z,50.29
2023-05-21T08:26:22.709Z,50.45
2023-05-21T08:28:50.277Z,50.33
2023-05-21T08:31:21.340Z,49.63
2023-05-21T08:33:53.892Z,49.54
2023-05-21T08:36:35.988Z,49.62
2023-05-21T08:39:08.982Z,49.31
2023-05-21T08:41:41.332Z,49.22
2023-05-21T08:44:13.298Z,49.70
2023-05-21T08:46:45.092Z,49.54
2023-05-21T08:49:17.442Z,49.39
2023-05-21T08:51:46.982Z,49.19
2023-05-21T08:54:14.774Z,48.68
2023-05-21T08:56:47.045Z,48.49
2023-05-21T08:59:19.601Z,48.35
2023-05-21T09:01:49.971Z,47.83
2023-05-21T09:04:27.566Z,47.14
2023-05-21T09:06:57.797Z,47.10
2023-05-21T09:10:02.616Z,47.24
2023-05-21T09:12:30.517Z,46.66
2023-05-21T09:15:01.224Z,46.91
2023-05-21T09:17:33.560Z,46.67
2023-05-21T09:20:15.903Z,46.74
2023-05-21T09:22:51.388Z,46.14
2023-05-21T09:25:25.293Z,46.16
2023-05-21T09:27:52.895Z,45.95
2023-05-21T09:30:24.109Z,45.99
2023-05-21T09:32:59.516Z,45.65
2023-05-21T09:35:27.937Z,45.59
2023-05-21T09:37:57.302Z,45.08
2023-05-21T09:40:25.068Z,44.46
2023-05-21T09:42:54.856Z,43.88
2023-05-21T09:45:25.447Z,43.92
2023-05-21T09:47:56.543Z,43.72
2023-05-21T09:50:28.270Z,43.40
2023-05-21T09:52:56.119Z,43.18
2023-05-21T09:55:26.507Z,42.96
2023-05-21T09:57:54.084Z,43.02
2023-05-21T10:00:27.562Z,42.99
2023-05-21T10:03:01.666Z,42.61
2023-05-21T10:05:30.778Z,42.35
2023-05-21T10:08:02.236Z,41.79
2023-05-21T10:10:32.247Z,41.36
2023-05-21T10:13:09.112Z,41.26
2023-05-21T10:15:44.917Z,40.98
2023-05-21T10:18:13.870Z,40.99
2023-05-21T10:20:42.553Z,40.90
2023-05-21T10:23:10.425Z,40.48
2023-05-21T10:25:38.234Z,40.52
2023-05-21T10:28:07.039Z,40.24
2023-05-21T10:30:36.246Z,40.07
2023-05-21T10:33:05.701Z,39.29
2023-05-21T10:35:34.168Z,39.53
2023-05-21T10:38:04.454Z,39.44
2023-05-21T10:40:32.303Z,39.63
2023-05-21T10:43:25.096Z,39.25
2023-05-21T10:46:53.233Z,39.16
2023-05-21T10:49:41.908Z,38.82
2023-05-21T10:52:33.864Z,38.56
2023-05-21T10:55:42.786Z,38.27
2023-05-21T10:58:44.593Z,38.36
2023-05-21T11:01:12.684Z,38.28
2023-05-21T11:03:40.709Z,38.18
2023-05-21T11:06:08.484Z,38.19
2023-05-21T11:08:37.164Z,38.41
2023-05-21T11:11:05.158Z,38.26
2023-05-21T11:13:49.263Z,37.94
2023-05-21T11:16:18.247Z,37.60
2023-05-21T11:18:45.850Z,37.58
2023-05-21T11:21:22.859Z,37.64
2023-05-21T11:24:02.890Z,37.00
2023-05-21T11:26:55.144Z,36.97
2023-05-21T11:29:40.242Z,37.39
2023-05-21T11:32:09.560Z,36.93
2023-05-21T11:34:42.134Z,37.45
2023-05-21T11:37:20.673Z,37.50
2023-05-21T11:39:50.466Z,36.87
2023-05-21T11:42:38.672Z,36.65
2023-05-21T11:45:07.166Z,36.70
2023-05-21T11:47:34.774Z,36.74
2023-05-21T11:50:04.120Z,36.66
2023-05-21T11:52:33.127Z,36.18
2023-05-21T11:55:01.126Z,35.80
2023-05-21T11:57:31.088Z,35.01
2023-05-21T12:00:01.323Z,35.30
2023-05-21T12:02:32.640Z,35.54
2023-05-21T12:05:00.695Z,35.62
2023-05-21T12:07:32.125Z,35.44
2023-05-21T12:10:01.019Z,35.17
2023-05-21T12:12:38.557Z,34.37
2023-05-21T12:15:13.826Z,34.04
2023-05-21T12:17:41.490Z,33.98
2023-05-21T12:20:10.633Z,32.85
2023-05-21T12:22:42.678Z,33.27
2023-05-21T12:25:10.731Z,32.96
2023-05-21T12:27:38.633Z,32.99
2023-05-21T12:30:08.257Z,32.77
2023-05-21T12:32:38.071Z,32.67
2023-05-21T12:35:06.233Z,32.48
2023-05-21T12:37:35.796Z,32.53
2023-05-21T12:40:05.099Z,32.66
2023-05-21T12:42:36.540Z,33.02
2023-05-21T12:45:09.190Z,32.69
2023-05-21T12:47:37.182Z,32.25
2023-05-21T12:50:09.579Z,32.34
2023-05-21T12:52:37.309Z,32.00
2023-05-21T12:55:06.219Z,32.20
2023-05-21T12:57:38.792Z,32.14
2023-05-21T13:00:13.119Z,32.06
2023-05-21T13:02:43.553Z,31.62
2023-05-21T13:05:19.500Z,32.04
2023-05-21T13:07:47.712Z,32.02
2023-05-21T13:10:16.790Z,31.79
2023-05-21T13:12:45.409Z,32.02
2023-05-21T13:15:13.114Z,31.81
2023-05-21T13:17:40.864Z,31.61
2023-05-21T13:20:15.156Z,31.87
2023-05-21T13:22:46.716Z,31.96
2023-05-21T13:25:25.052Z,31.99
2023-05-21T13:27:53.817Z,31.63
2023-05-21T13:30:22.333Z,31.74
2023-05-21T13:32:50.274Z,31.48
2023-05-21T13:35:18.172Z,31.46
2023-05-21T13:37:45.960Z,31.77
2023-05-21T13:40:16.522Z,31.19
2023-05-21T13:42:46.930Z,31.13
2023-05-21T13:45:17.616Z,31.33
2023-05-21T13:47:47.008Z,31.93
2023-05-21T13:50:15.793Z,31.90
2023-05-21T13:52:43.497Z,31.83
2023-05-21T13:55:11.181Z,31.86
2023-05-21T13:57:40.441Z,31.14
2023-05-21T14:00:10.496Z,31.69
2023-05-21T14:02:38.259Z,31.65
2023-05-21T14:05:06.446Z,31.77
2023-05-21T14:07:34.357Z,31.80
2023-05-21T14:10:02.819Z,31.88
2023-05-21T14:12:31.041Z,31.51
2023-05-21T14:14:58.736Z,31.65
2023-05-21T14:17:26.314Z,31.60
2023-05-21T14:19:54.892Z,32.02
2023-05-21T14:22:24.724Z,31.64
2023-05-21T14:24:52.873Z,31.19
2023-05-21T14:27:20.771Z,31.61
2023-05-21T14:29:48.514Z,31.80
2023-05-21T14:32:18.423Z,31.82
2023-05-21T14:34:46.094Z,31.21
2023-05-21T14:37:13.707Z,31.42
2023-05-21T14:39:41.291Z,31.45
2023-05-21T14:42:08.898Z,31.40
2023-05-21T14:44:36.536Z,31.38
2023-05-21T14:47:04.354Z,31.09
2023-05-21T14:49:32.013Z,31.35
2023-05-21T14:51:59.788Z,31.26
2023-05-21T14:54:27.621Z,31.04
2023-05-21T14:56:55.614Z,30.90
2023-05-21T14:59:23.388Z,31.17
2023-05-21T15:01:51.253Z,31.03
2023-05-21T15:04:18.962Z,31.57
2023-05-21T15:06:46.770Z,31.39
2023-05-21T15:09:14.407Z,31.14
2023-05-21T15:11:43.908Z,31.07
2023-05-21T15:14:12.137Z,30.95
2023-05-21T15:16:39.850Z,31.10
2023-05-21T15:19:07.742Z,31.29
2023-05-21T15:21:35.380Z,31.21
2023-05-21T15:24:03.136Z,31.30
2023-05-21T15:26:30.819Z,31.13
2023-05-21T15:28:58.348Z,31.30
2023-05-21T15:31:25.924Z,31.23
2023-05-21T15:33:53.683Z,31.73
2023-05-21T15:36:21.246Z,31.90
2023-05-21T15:38:48.817Z,31.92
2023-05-21T15:41:16.399Z,31.78
2023-05-21T15:43:46.024Z,31.32
2023-05-21T15:46:13.590Z,32.07
2023-05-21T15:48:41.154Z,31.68
2023-05-21T15:51:08.793Z,31.13
2023-05-21T15:53:36.485Z,31.28
2023-05-21T15:56:04.372Z,31.12
2023-05-21T15:58:32.117Z,31.12
2023-05-21T16:00:59.818Z,31.08
2023-05-21T16:03:27.489Z,31.55
2023-05-21T16:05:55.298Z,31.47
2023-05-21T16:08:22.926Z,31.11
2023-05-21T16:10:50.612Z,31.68
2023-05-21T16:13:18.166Z,31.46
2023-05-21T16:15:45.973Z,31.51
2023-05-21T16:18:13.546Z,31.34
2023-05-21T16:20:41.161Z,31.33
2023-05-21T16:23:08.871Z,31.37
2023-05-21T16:25:36.924Z,31.35
2023-05-21T16:28:05.072Z,31.44
2023-05-21T16:30:32.762Z,31.37
2023-05-21T16:33:00.536Z,31.32
2023-05-21T16:35:28.170Z,30.86
2023-05-21T16:37:55.888Z,31.34
2023-05-21T16:40:23.856Z,31.62
2023-05-21T16:42:53.167Z,31.24
2023-05-21T16:45:21.512Z,31.69
2023-05-21T16:47:51.149Z,31.67
2023-05-21T16:50:21.818Z,32.13
2023-05-21T16:52:49.368Z,32.29
2023-05-21T16:55:16.938Z,31.68
2023-05-21T16:57:44.620Z,32.09
2023-05-21T17:00:12.917Z,31.88
2023-05-21T17:02:40.627Z,33.05
2023-05-21T17:05:08.404Z,33.08
2023-05-21T17:07:36.076Z,33.38
2023-05-21T17:10:04.707Z,33.53
2023-05-21T17:12:32.308Z,33.83
2023-05-21T17:15:00.306Z,34.09
2023-05-21T17:17:28.156Z,34.42
2023-05-21T17:19:56.669Z,34.24
2023-05-21T17:22:24.371Z,34.82
2023-05-21T17:24:52.007Z,35.31
2023-05-21T17:27:19.590Z,35.08
2023-05-21T17:29:47.125Z,35.30
2023-05-21T17:32:14.961Z,35.35
2023-05-21T17:34:43.642Z,35.06
2023-05-21T17:37:11.259Z,35.45
2023-05-21T17:39:38.806Z,35.71
2023-05-21T17:42:06.467Z,35.86
2023-05-21T17:44:34.047Z,36.25
2023-05-21T17:47:01.708Z,36.70
2023-05-21T17:49:29.239Z,36.41
2023-05-21T17:51:56.834Z,37.02
2023-05-21T17:54:24.367Z,37.11
2023-05-21T17:56:52.075Z,36.96
2023-05-21T17:59:21.112Z,37.17
2023-05-21T18:01:48.713Z,37.69
2023-05-21T18:04:16.376Z,37.37
2023-05-21T18:06:44.010Z,38.09
2023-05-21T18:09:14.187Z,38.09
2023-05-21T18:11:44.941Z,38.93
2023-05-21T18:14:12.593Z,39.31
2023-05-21T18:16:40.940Z,39.28
2023-05-21T18:19:08.673Z,39.29
2023-05-21T18:21:37.157Z,39.36
2023-05-21T18:24:06.298Z,38.99
2023-05-21T18:26:33.840Z,39.51
2023-05-21T18:29:01.522Z,39.60
2023-05-21T18:31:29.096Z,39.96
2023-05-21T18:33:56.701Z,39.61
2023-05-21T18:36:26.537Z,40.11
2023-05-21T18:38:54.161Z,40.15
2023-05-21T18:41:22.365Z,40.02
2023-05-21T18:43:49.951Z,40.16
2023-05-21T18:46:17.640Z,40.12
2023-05-21T18:48:46.244Z,40.44
2023-05-21T18:51:13.855Z,40.32
2023-05-21T18:53:41.378Z,40.56
2023-05-21T18:56:10.223Z,40.41
2023-05-21T18:58:38.318Z,40.73
2023-05-21T19:01:06.675Z,40.71
2023-05-21T19:03:34.209Z,41.05
2023-05-21T19:06:01.810Z,41.34
2023-05-21T19:08:29.360Z,41.22
2023-05-21T19:10:56.937Z,41.66
2023-05-21T19:13:24.652Z,41.92
2023-05-21T19:15:52.393Z,41.67
2023-05-21T19:18:20.017Z,41.97
2023-05-21T19:20:47.574Z,41.84
2023-05-21T19:23:15.226Z,42.10
2023-05-21T19:25:42.827Z,42.07
2023-05-21T19:28:10.432Z,42.30
2023-05-21T19:30:38.202Z,42.55
2023-05-21T19:33:06.363Z,42.75
2023-05-21T19:35:34.088Z,42.70
2023-05-21T19:38:03.391Z,42.92
2023-05-21T19:40:33.389Z,43.04
2023-05-21T19:43:01.232Z,43.27
2023-05-21T19:45:28.857Z,43.20
2023-05-21T19:47:57.230Z,43.36
2023-05-21T19:50:25.003Z,43.48
2023-05-21T19:52:53.401Z,43.55
2023-05-21T19:55:22.796Z,43.55
2023-05-21T19:57:50.557Z,43.80
2023-05-21T20:00:18.846Z,43.72
2023-05-21T20:02:46.674Z,44.10
2023-05-21T20:05:14.468Z,43.99
2023-05-21T20:07:42.261Z,44.21
2023-05-21T20:10:10.055Z,44.09
2023-05-21T20:12:38.526Z,43.91
2023-05-21T20:15:07.105Z,44.06
2023-05-21T20:17:35.853Z,44.21
2023-05-21T20:20:07.372Z,44.28
2023-05-21T20:22:34.909Z,44.45
2023-05-21T20:25:03.783Z,44.59
2023-05-21T20:27:31.934Z,44.37
2023-05-21T20:29:59.561Z,44.44
2023-05-21T20:32:27.517Z,44.58
2023-05-21T20:35:03.320Z,44.74
2023-05-21T20:37:32.742Z,44.90
2023-05-21T20:40:00.454Z,44.78
2023-05-21T20:42:33.902Z,44.88
2023-05-21T20:45:01.774Z,44.42
2023-05-21T20:47:30.066Z,45.04
2023-05-21T20:50:02.709Z,45.26
2023-05-21T20:52:30.830Z,45.09
2023-05-21T20:54:59.559Z,45.71
2023-05-21T20:57:28.249Z,45.62
2023-05-21T20:59:56.152Z,45.86
2023-05-21T21:02:23.800Z,46.05
2023-05-21T21:04:51.367Z,45.87
2023-05-21T21:07:19.637Z,46.15
2023-05-21T21:09:48.992Z,46.10
2023-05-21T21:12:26.131Z,46.22
2023-05-21T21:14:54.931Z,46.33
2023-05-21T21:17:23.160Z,46.61
2023-05-21T21:19:50.896Z,46.66
2023-05-21T21:22:18.628Z,46.74
2023-05-21T21:24:46.970Z,47.04
2023-05-21T21:27:14.549Z,46.71
2023-05-21T21:29:42.273Z,47.20
2023-05-21T21:32:09.830Z,47.18
2023-05-21T21:34:37.366Z,47.29
2023-05-21T21:37:05.580Z,47.10
2023-05-21T21:39:33.154Z,47.48
2023-05-21T21:42:00.827Z,47.64
2023-05-21T21:44:28.471Z,47.55
2023-05-21T21:46:56.047Z,47.45
2023-05-21T21:49:23.585Z,47.15
2023-05-21T21:51:51.396Z,47.23
2023-05-21T21:54:18.907Z,47.59
2023-05-21T21:56:46.501Z,47.37
2023-05-21T21:59:14.116Z,47.77
2023-05-21T22:01:42.777Z,47.72
2023-05-21T22:04:11.224Z,47.79
2023-05-21T22:06:41.354Z,47.88
2023-05-21T22:09:08.936Z,48.23
2023-05-21T22:11:36.585Z,48.00
2023-05-21T22:14:05.276Z,48.04
2023-05-21T22:16:33.913Z,48.01
2023-05-21T22:19:01.563Z,48.18
2023-05-21T22:21:32.735Z,48.23
2023-05-21T22:24:00.569Z,48.20
2023-05-21T22:26:28.085Z,48.31
2023-05-21T22:28:56.019Z,48.27
2023-05-21T22:31:23.580Z,48.26
2023-05-21T22:33:51.164Z,48.40
2023-05-21T22:36:18.756Z,48.17
2023-05-21T22:38:46.360Z,48.32
2023-05-21T22:41:13.954Z,48.84
2023-05-21T22:43:41.572Z,48.61
2023-05-21T22:46:09.104Z,48.73
2023-05-21T22:48:37.063Z,48.33
2023-05-21T22:51:05.430Z,48.11
2023-05-21T22:53:33.813Z,48.05
2023-05-21T22:56:01.604Z,48.28
2023-05-21T22:58:29.209Z,47.97
2023-05-21T23:00:56.847Z,48.51
2023-05-21T23:03:24.463Z,48.30
2023-05-21T23:05:52.291Z,48.26
2023-05-21T23:08:19.943Z,48.67
2023-05-21T23:10:47.530Z,48.74
2023-05-21T23:13:15.130Z,48.85
2023-05-21T23:15:43.591Z,49.00
2023-05-21T23:18:11.681Z,49.01
2023-05-21T23:20:40.914Z,48.75
2023-05-21T23:23:10.153Z,48.53
2023-05-21T23:25:37.912Z,48.91
2023-05-21T23:28:05.676Z,48.60
2023-05-21T23:30:33.215Z,48.61
2023-05-21T23:33:01.047Z,49.04
2023-05-21T23:35:28.728Z,48.71
2023-05-21T23:37:56.387Z,49.12
2023-05-21T23:40:24.017Z,49.10
2023-05-21T23:42:51.634Z,49.33
2023-05-21T23:45:19.196Z,49.39
2023-05-21T23:47:46.911Z,49.14
2023-05-21T23:50:14.649Z,49.54
2023-05-21T23:52:42.272Z,49.57
2023-05-21T23:55:12.501Z,49.23
2023-05-21T23:57:40.904Z,49.58
